ハルビン の空港の天気 - METARとTAF

ハルビン太平国際空港 ( ZYHB / HRB ) - 中国 黒竜江省ハルビン市
飛行場実況気象(Metar)
観測時間10/16 15:00 CST (10/16 07:00 UTC)
風向・風速北 2m/s
視程10km以上
天気現象
なし
気温14℃
湿度29%
気圧1024hPa
METARZYHB 160700Z 35002MPS 310V040 CAVOK 14/M04 Q1024 NOSIG
過去の天気等 Google飛行場航空写真 Wunderground天気予報

過去48時間のMETAR

飛行場予報(TAF)
発表時間: 10/16 11:04 CST (10/16 03:04 UTC)
予報対象時間: 16日14時 CST ~ 17日14時 CST
風向・風速南 3m/s
視程6000m
少しの雲 雲底高度 1010m
TAF ZYHB 160304Z 1606/1706 17003MPS 6000 FEW033 TX15/1606Z TN01/1621Z